sensor_id;sensor_type;location;lat;lon;timestamp;temperature;humidity
60309;DHT22;50313;52.894;6.492;2023-10-09T00:00:32;13.60;99.90
60309;DHT22;50313;52.894;6.492;2023-10-09T00:03:04;13.60;99.90
60309;DHT22;50313;52.894;6.492;2023-10-09T00:05:35;13.60;99.90
60309;DHT22;50313;52.894;6.492;2023-10-09T00:08:11;13.60;99.90
60309;DHT22;50313;52.894;6.492;2023-10-09T00:10:44;13.60;99.90
60309;DHT22;50313;52.894;6.492;2023-10-09T00:13:20;13.60;99.90
60309;DHT22;50313;52.894;6.492;2023-10-09T00:15:52;13.60;99.90
60309;DHT22;50313;52.894;6.492;2023-10-09T00:18:19;13.60;99.90
60309;DHT22;50313;52.894;6.492;2023-10-09T00:20:54;13.60;99.90
60309;DHT22;50313;52.894;6.492;2023-10-09T00:23:20;13.60;99.90
60309;DHT22;50313;52.894;6.492;2023-10-09T00:25:51;13.50;99.90
60309;DHT22;50313;52.894;6.492;2023-10-09T00:28:52;13.50;99.90
60309;DHT22;50313;52.894;6.492;2023-10-09T00:31:18;13.50;99.90
60309;DHT22;50313;52.894;6.492;2023-10-09T00:33:58;13.50;99.90
60309;DHT22;50313;52.894;6.492;2023-10-09T00:36:44;13.50;99.90
60309;DHT22;50313;52.894;6.492;2023-10-09T00:39:19;13.50;99.90
60309;DHT22;50313;52.894;6.492;2023-10-09T00:42:06;13.50;99.90
60309;DHT22;50313;52.894;6.492;2023-10-09T00:44:32;13.40;99.90
60309;DHT22;50313;52.894;6.492;2023-10-09T00:47:10;13.50;99.90
60309;DHT22;50313;52.894;6.492;2023-10-09T00:50:09;13.40;99.90
60309;DHT22;50313;52.894;6.492;2023-10-09T00:52:42;13.40;99.90
60309;DHT22;50313;52.894;6.492;2023-10-09T00:55:17;13.40;99.90
60309;DHT22;50313;52.894;6.492;2023-10-09T00:57:53;13.40;99.90
60309;DHT22;50313;52.894;6.492;2023-10-09T01:00:24;13.40;99.90
60309;DHT22;50313;52.894;6.492;2023-10-09T01:03:11;13.40;99.90
60309;DHT22;50313;52.894;6.492;2023-10-09T01:08:20;13.30;99.90
60309;DHT22;50313;52.894;6.492;2023-10-09T01:10:56;13.30;99.90
60309;DHT22;50313;52.894;6.492;2023-10-09T01:13:24;13.30;99.90
60309;DHT22;50313;52.894;6.492;2023-10-09T01:16:22;13.30;99.90
60309;DHT22;50313;52.894;6.492;2023-10-09T01:18:50;13.30;99.90
60309;DHT22;50313;52.894;6.492;2023-10-09T01:21:17;13.30;99.90
60309;DHT22;50313;52.894;6.492;2023-10-09T01:23:44;13.30;99.90
60309;DHT22;50313;52.894;6.492;2023-10-09T01:26:40;13.30;99.90
60309;DHT22;50313;52.894;6.492;2023-10-09T01:29:11;13.30;99.90
60309;DHT22;50313;52.894;6.492;2023-10-09T01:31:51;13.30;99.90
60309;DHT22;50313;52.894;6.492;2023-10-09T01:34:18;13.30;99.90
60309;DHT22;50313;52.894;6.492;2023-10-09T01:36:48;13.20;99.90
60309;DHT22;50313;52.894;6.492;2023-10-09T01:39:14;13.20;99.90
60309;DHT22;50313;52.894;6.492;2023-10-09T01:41:51;13.30;99.90
60309;DHT22;50313;52.894;6.492;2023-10-09T01:44:28;13.20;99.90
60309;DHT22;50313;52.894;6.492;2023-10-09T01:46:56;13.20;99.90
60309;DHT22;50313;52.894;6.492;2023-10-09T01:49:24;13.20;99.90
60309;DHT22;50313;52.894;6.492;2023-10-09T01:51:57;13.30;99.90
60309;DHT22;50313;52.894;6.492;2023-10-09T01:54:32;13.30;99.90
60309;DHT22;50313;52.894;6.492;2023-10-09T01:57:05;13.20;99.90
60309;DHT22;50313;52.894;6.492;2023-10-09T01:59:34;13.30;99.90
60309;DHT22;50313;52.894;6.492;2023-10-09T02:02:07;13.20;99.90
60309;DHT22;50313;52.894;6.492;2023-10-09T02:04:46;13.20;99.90
60309;DHT22;50313;52.894;6.492;2023-10-09T02:07:13;13.30;99.90
60309;DHT22;50313;52.894;6.492;2023-10-09T02:09:39;13.20;99.90
60309;DHT22;50313;52.894;6.492;2023-10-09T02:12:11;13.30;99.90
60309;DHT22;50313;52.894;6.492;2023-10-09T02:14:37;13.20;99.90
60309;DHT22;50313;52.894;6.492;2023-10-09T02:17:07;13.30;99.90
60309;DHT22;50313;52.894;6.492;2023-10-09T02:19:44;13.30;99.90
60309;DHT22;50313;52.894;6.492;2023-10-09T02:22:15;13.30;99.90
60309;DHT22;50313;52.894;6.492;2023-10-09T02:24:43;13.30;99.90
60309;DHT22;50313;52.894;6.492;2023-10-09T02:27:25;13.30;99.90
60309;DHT22;50313;52.894;6.492;2023-10-09T02:30:12;13.30;99.90
60309;DHT22;50313;52.894;6.492;2023-10-09T02:32:53;13.30;99.90
60309;DHT22;50313;52.894;6.492;2023-10-09T02:35:24;13.30;99.90
60309;DHT22;50313;52.894;6.492;2023-10-09T02:38:04;13.30;99.90
60309;DHT22;50313;52.894;6.492;2023-10-09T02:40:34;13.30;99.90
60309;DHT22;50313;52.894;6.492;2023-10-09T02:43:08;13.30;99.90
60309;DHT22;50313;52.894;6.492;2023-10-09T02:45:43;13.30;99.90
60309;DHT22;50313;52.894;6.492;2023-10-09T02:48:18;13.30;99.90
60309;DHT22;50313;52.894;6.492;2023-10-09T02:50:46;13.30;99.90
60309;DHT22;50313;52.894;6.492;2023-10-09T02:53:12;13.40;99.90
60309;DHT22;50313;52.894;6.492;2023-10-09T02:55:45;13.40;99.90
60309;DHT22;50313;52.894;6.492;2023-10-09T02:58:30;13.30;99.90
60309;DHT22;50313;52.894;6.492;2023-10-09T03:00:58;13.40;99.90
60309;DHT22;50313;52.894;6.492;2023-10-09T03:03:25;13.40;99.90
60309;DHT22;50313;52.894;6.492;2023-10-09T03:05:52;13.40;99.90
60309;DHT22;50313;52.894;6.492;2023-10-09T03:08:18;13.40;99.90
60309;DHT22;50313;52.894;6.492;2023-10-09T03:10:45;13.40;99.90
60309;DHT22;50313;52.894;6.492;2023-10-09T03:13:11;13.50;99.90
60309;DHT22;50313;52.894;6.492;2023-10-09T03:15:38;13.40;99.90
60309;DHT22;50313;52.894;6.492;2023-10-09T03:18:04;13.40;99.90
60309;DHT22;50313;52.894;6.492;2023-10-09T03:20:31;13.50;99.90
60309;DHT22;50313;52.894;6.492;2023-10-09T03:22:56;13.50;99.90
60309;DHT22;50313;52.894;6.492;2023-10-09T03:25:23;13.50;99.90
60309;DHT22;50313;52.894;6.492;2023-10-09T03:27:50;13.50;99.90
60309;DHT22;50313;52.894;6.492;2023-10-09T03:30:18;13.50;99.90
60309;DHT22;50313;52.894;6.492;2023-10-09T03:32:51;13.60;99.90
60309;DHT22;50313;52.894;6.492;2023-10-09T03:35:21;13.50;99.90
60309;DHT22;50313;52.894;6.492;2023-10-09T03:37:55;13.60;99.90
60309;DHT22;50313;52.894;6.492;2023-10-09T03:40:42;13.60;99.90
60309;DHT22;50313;52.894;6.492;2023-10-09T03:43:11;13.70;99.90
60309;DHT22;50313;52.894;6.492;2023-10-09T03:45:37;13.70;99.90
60309;DHT22;50313;52.894;6.492;2023-10-09T03:48:11;13.80;99.90
60309;DHT22;50313;52.894;6.492;2023-10-09T03:51:00;13.80;99.90
60309;DHT22;50313;52.894;6.492;2023-10-09T03:53:37;13.80;99.90
60309;DHT22;50313;52.894;6.492;2023-10-09T03:56:08;13.90;99.90
60309;DHT22;50313;52.894;6.492;2023-10-09T03:58:51;13.90;99.90
60309;DHT22;50313;52.894;6.492;2023-10-09T04:01:21;13.90;99.90
60309;DHT22;50313;52.894;6.492;2023-10-09T04:03:58;13.90;99.90
60309;DHT22;50313;52.894;6.492;2023-10-09T04:06:29;14.00;99.90
60309;DHT22;50313;52.894;6.492;2023-10-09T04:09:11;14.00;99.90
60309;DHT22;50313;52.894;6.492;2023-10-09T04:11:47;14.00;99.90
60309;DHT22;50313;52.894;6.492;2023-10-09T04:14:16;14.00;99.90
60309;DHT22;50313;52.894;6.492;2023-10-09T04:17:11;14.10;99.90
60309;DHT22;50313;52.894;6.492;2023-10-09T04:20:03;14.10;99.90
60309;DHT22;50313;52.894;6.492;2023-10-09T04:22:44;14.10;99.90
60309;DHT22;50313;52.894;6.492;2023-10-09T04:25:36;14.10;99.90
60309;DHT22;50313;52.894;6.492;2023-10-09T04:28:09;14.10;99.90
60309;DHT22;50313;52.894;6.492;2023-10-09T04:30:39;14.10;99.90
60309;DHT22;50313;52.894;6.492;2023-10-09T04:33:22;14.20;99.90
60309;DHT22;50313;52.894;6.492;2023-10-09T04:36:04;14.20;99.90
60309;DHT22;50313;52.894;6.492;2023-10-09T04:38:54;14.30;99.90
60309;DHT22;50313;52.894;6.492;2023-10-09T04:41:30;14.30;99.90
60309;DHT22;50313;52.894;6.492;2023-10-09T04:44:17;14.30;99.90
60309;DHT22;50313;52.894;6.492;2023-10-09T04:46:43;14.40;99.90
60309;DHT22;50313;52.894;6.492;2023-10-09T04:49:10;14.50;99.90
60309;DHT22;50313;52.894;6.492;2023-10-09T04:51:54;14.60;99.90
60309;DHT22;50313;52.894;6.492;2023-10-09T04:54:33;14.60;99.90
60309;DHT22;50313;52.894;6.492;2023-10-09T04:57:05;14.70;99.90
60309;DHT22;50313;52.894;6.492;2023-10-09T04:59:43;14.70;99.90
60309;DHT22;50313;52.894;6.492;2023-10-09T05:02:13;14.80;99.90
60309;DHT22;50313;52.894;6.492;2023-10-09T05:04:54;15.00;99.90
60309;DHT22;50313;52.894;6.492;2023-10-09T05:07:40;15.00;99.90
60309;DHT22;50313;52.894;6.492;2023-10-09T05:10:21;15.00;99.90
60309;DHT22;50313;52.894;6.492;2023-10-09T05:12:51;15.10;99.90
60309;DHT22;50313;52.894;6.492;2023-10-09T05:15:26;15.10;99.90
60309;DHT22;50313;52.894;6.492;2023-10-09T05:17:56;15.10;99.90
60309;DHT22;50313;52.894;6.492;2023-10-09T05:20:24;15.20;99.90
60309;DHT22;50313;52.894;6.492;2023-10-09T05:22:53;15.20;99.90
60309;DHT22;50313;52.894;6.492;2023-10-09T05:25:45;15.30;99.90
60309;DHT22;50313;52.894;6.492;2023-10-09T05:28:21;15.30;99.90
60309;DHT22;50313;52.894;6.492;2023-10-09T05:31:15;15.30;99.90
60309;DHT22;50313;52.894;6.492;2023-10-09T05:33:59;15.30;99.90
60309;DHT22;50313;52.894;6.492;2023-10-09T05:36:27;15.30;99.90
60309;DHT22;50313;52.894;6.492;2023-10-09T05:38:53;15.40;99.90
60309;DHT22;50313;52.894;6.492;2023-10-09T05:41:25;15.50;99.90
60309;DHT22;50313;52.894;6.492;2023-10-09T05:44:13;15.50;99.90
60309;DHT22;50313;52.894;6.492;2023-10-09T05:46:57;15.50;99.90
60309;DHT22;50313;52.894;6.492;2023-10-09T05:49:49;15.60;99.90
60309;DHT22;50313;52.894;6.492;2023-10-09T05:52:47;15.60;99.90
60309;DHT22;50313;52.894;6.492;2023-10-09T05:55:20;15.60;99.90
60309;DHT22;50313;52.894;6.492;2023-10-09T05:57:46;15.60;99.90
60309;DHT22;50313;52.894;6.492;2023-10-09T06:00:21;15.70;99.90
60309;DHT22;50313;52.894;6.492;2023-10-09T06:03:05;15.70;99.90
60309;DHT22;50313;52.894;6.492;2023-10-09T06:05:51;15.70;99.90
60309;DHT22;50313;52.894;6.492;2023-10-09T06:08:30;15.60;99.90
60309;DHT22;50313;52.894;6.492;2023-10-09T06:11:09;15.60;99.90
60309;DHT22;50313;52.894;6.492;2023-10-09T06:13:54;15.60;99.90
60309;DHT22;50313;52.894;6.492;2023-10-09T06:16:31;15.70;99.90
60309;DHT22;50313;52.894;6.492;2023-10-09T06:19:26;15.70;99.90
60309;DHT22;50313;52.894;6.492;2023-10-09T06:21:58;15.70;99.90
60309;DHT22;50313;52.894;6.492;2023-10-09T06:24:43;15.70;99.90
60309;DHT22;50313;52.894;6.492;2023-10-09T06:27:18;15.70;99.90
60309;DHT22;50313;52.894;6.492;2023-10-09T06:29:58;15.70;99.90
60309;DHT22;50313;52.894;6.492;2023-10-09T06:32:42;15.70;99.90
60309;DHT22;50313;52.894;6.492;2023-10-09T06:35:24;15.80;99.90
60309;DHT22;50313;52.894;6.492;2023-10-09T06:37:59;15.80;99.90
60309;DHT22;50313;52.894;6.492;2023-10-09T06:40:32;15.80;99.90
60309;DHT22;50313;52.894;6.492;2023-10-09T06:43:17;15.80;99.90
60309;DHT22;50313;52.894;6.492;2023-10-09T06:45:43;15.80;99.90
60309;DHT22;50313;52.894;6.492;2023-10-09T06:48:13;15.90;99.90
60309;DHT22;50313;52.894;6.492;2023-10-09T06:50:58;15.90;99.90
60309;DHT22;50313;52.894;6.492;2023-10-09T06:53:41;15.90;99.90
60309;DHT22;50313;52.894;6.492;2023-10-09T06:56:29;16.00;99.90
60309;DHT22;50313;52.894;6.492;2023-10-09T07:01:26;15.90;99.90
60309;DHT22;50313;52.894;6.492;2023-10-09T07:04:04;15.90;99.90
60309;DHT22;50313;52.894;6.492;2023-10-09T07:06:49;16.00;99.90
60309;DHT22;50313;52.894;6.492;2023-10-09T07:09:16;16.00;99.90
60309;DHT22;50313;52.894;6.492;2023-10-09T07:11:53;16.00;99.90
60309;DHT22;50313;52.894;6.492;2023-10-09T07:14:23;16.00;99.90
60309;DHT22;50313;52.894;6.492;2023-10-09T07:17:18;16.00;99.90
60309;DHT22;50313;52.894;6.492;2023-10-09T07:19:59;16.10;99.90
60309;DHT22;50313;52.894;6.492;2023-10-09T07:22:37;16.10;99.90
60309;DHT22;50313;52.894;6.492;2023-10-09T07:25:18;16.10;99.90
60309;DHT22;50313;52.894;6.492;2023-10-09T07:27:55;16.10;99.90
60309;DHT22;50313;52.894;6.492;2023-10-09T07:30:21;16.10;99.90
60309;DHT22;50313;52.894;6.492;2023-10-09T07:32:57;16.10;99.90
60309;DHT22;50313;52.894;6.492;2023-10-09T07:35:34;16.10;99.90
60309;DHT22;50313;52.894;6.492;2023-10-09T07:38:23;16.10;99.90
60309;DHT22;50313;52.894;6.492;2023-10-09T07:40:55;16.20;99.90
60309;DHT22;50313;52.894;6.492;2023-10-09T07:43:37;16.10;99.90
60309;DHT22;50313;52.894;6.492;2023-10-09T07:46:31;16.20;99.90
60309;DHT22;50313;52.894;6.492;2023-10-09T07:49:17;16.20;99.90
60309;DHT22;50313;52.894;6.492;2023-10-09T07:51:50;16.20;99.90
60309;DHT22;50313;52.894;6.492;2023-10-09T07:54:18;16.30;99.90
60309;DHT22;50313;52.894;6.492;2023-10-09T07:56:58;16.30;99.90
60309;DHT22;50313;52.894;6.492;2023-10-09T07:59:42;16.30;99.90
60309;DHT22;50313;52.894;6.492;2023-10-09T08:02:21;16.40;99.90
60309;DHT22;50313;52.894;6.492;2023-10-09T08:05:01;16.40;99.90
60309;DHT22;50313;52.894;6.492;2023-10-09T08:07:45;16.40;99.90
60309;DHT22;50313;52.894;6.492;2023-10-09T08:10:22;16.40;99.90
60309;DHT22;50313;52.894;6.492;2023-10-09T08:12:48;16.50;99.90
60309;DHT22;50313;52.894;6.492;2023-10-09T08:15:23;16.50;99.90
60309;DHT22;50313;52.894;6.492;2023-10-09T08:18:00;16.50;99.90
60309;DHT22;50313;52.894;6.492;2023-10-09T08:20:36;16.50;99.90
60309;DHT22;50313;52.894;6.492;2023-10-09T08:23:22;16.50;99.90
60309;DHT22;50313;52.894;6.492;2023-10-09T08:26:17;16.50;99.90
60309;DHT22;50313;52.894;6.492;2023-10-09T08:28:55;16.50;99.90
60309;DHT22;50313;52.894;6.492;2023-10-09T08:31:43;16.50;99.90
60309;DHT22;50313;52.894;6.492;2023-10-09T08:34:14;16.50;99.90
60309;DHT22;50313;52.894;6.492;2023-10-09T08:36:51;16.50;99.90
60309;DHT22;50313;52.894;6.492;2023-10-09T08:39:21;16.50;99.90
60309;DHT22;50313;52.894;6.492;2023-10-09T08:41:58;16.50;99.90
60309;DHT22;50313;52.894;6.492;2023-10-09T08:44:27;16.50;99.90
60309;DHT22;50313;52.894;6.492;2023-10-09T08:46:55;16.50;99.90
60309;DHT22;50313;52.894;6.492;2023-10-09T08:49:21;16.50;99.90
60309;DHT22;50313;52.894;6.492;2023-10-09T08:51:47;16.40;99.90
60309;DHT22;50313;52.894;6.492;2023-10-09T08:54:14;16.40;99.90
60309;DHT22;50313;52.894;6.492;2023-10-09T08:56:41;16.50;99.90
60309;DHT22;50313;52.894;6.492;2023-10-09T08:59:17;16.40;99.90
60309;DHT22;50313;52.894;6.492;2023-10-09T09:01:47;16.50;99.90
60309;DHT22;50313;52.894;6.492;2023-10-09T09:04:37;16.50;99.90
60309;DHT22;50313;52.894;6.492;2023-10-09T09:09:59;16.60;99.90
60309;DHT22;50313;52.894;6.492;2023-10-09T09:12:51;16.60;99.90
60309;DHT22;50313;52.894;6.492;2023-10-09T09:15:27;16.60;99.90
60309;DHT22;50313;52.894;6.492;2023-10-09T09:18:04;16.60;99.90
60309;DHT22;50313;52.894;6.492;2023-10-09T09:20:32;16.60;99.90
60309;DHT22;50313;52.894;6.492;2023-10-09T09:23:00;16.60;99.90
60309;DHT22;50313;52.894;6.492;2023-10-09T09:25:43;16.60;99.90
60309;DHT22;50313;52.894;6.492;2023-10-09T09:28:13;16.60;99.90
60309;DHT22;50313;52.894;6.492;2023-10-09T09:30:45;16.60;99.90
60309;DHT22;50313;52.894;6.492;2023-10-09T09:33:27;16.70;99.90
60309;DHT22;50313;52.894;6.492;2023-10-09T09:36:06;16.70;99.90
60309;DHT22;50313;52.894;6.492;2023-10-09T09:38:34;16.60;99.90
60309;DHT22;50313;52.894;6.492;2023-10-09T09:41:14;16.70;99.90
60309;DHT22;50313;52.894;6.492;2023-10-09T09:43:59;16.70;99.90
60309;DHT22;50313;52.894;6.492;2023-10-09T09:46:46;16.80;99.90
60309;DHT22;50313;52.894;6.492;2023-10-09T09:49:12;16.90;99.90
60309;DHT22;50313;52.894;6.492;2023-10-09T09:51:42;16.90;99.90
60309;DHT22;50313;52.894;6.492;2023-10-09T09:54:13;16.90;99.90
60309;DHT22;50313;52.894;6.492;2023-10-09T09:56:44;17.00;99.90
60309;DHT22;50313;52.894;6.492;2023-10-09T09:59:17;17.10;99.90
60309;DHT22;50313;52.894;6.492;2023-10-09T10:01:50;17.00;99.90
60309;DHT22;50313;52.894;6.492;2023-10-09T10:04:26;17.10;99.90
60309;DHT22;50313;52.894;6.492;2023-10-09T10:06:54;17.20;99.90
60309;DHT22;50313;52.894;6.492;2023-10-09T10:09:39;17.20;99.90
60309;DHT22;50313;52.894;6.492;2023-10-09T10:12:06;17.30;99.90
60309;DHT22;50313;52.894;6.492;2023-10-09T10:14:54;17.40;99.90
60309;DHT22;50313;52.894;6.492;2023-10-09T10:20:28;17.40;99.90
60309;DHT22;50313;52.894;6.492;2023-10-09T10:23:16;17.40;99.90
60309;DHT22;50313;52.894;6.492;2023-10-09T10:25:51;17.50;99.90
60309;DHT22;50313;52.894;6.492;2023-10-09T10:28:26;17.50;99.90
60309;DHT22;50313;52.894;6.492;2023-10-09T10:31:06;17.40;99.90
60309;DHT22;50313;52.894;6.492;2023-10-09T10:34:08;17.40;99.90
60309;DHT22;50313;52.894;6.492;2023-10-09T10:36:36;17.30;99.90
60309;DHT22;50313;52.894;6.492;2023-10-09T10:39:06;17.30;99.90
60309;DHT22;50313;52.894;6.492;2023-10-09T10:41:56;17.30;99.90
60309;DHT22;50313;52.894;6.492;2023-10-09T10:44:33;17.30;99.90
60309;DHT22;50313;52.894;6.492;2023-10-09T10:47:12;17.30;99.90
60309;DHT22;50313;52.894;6.492;2023-10-09T10:50:02;17.30;99.90
60309;DHT22;50313;52.894;6.492;2023-10-09T10:53:13;17.30;99.90
60309;DHT22;50313;52.894;6.492;2023-10-09T10:55:57;17.30;99.90
60309;DHT22;50313;52.894;6.492;2023-10-09T10:58:23;17.30;99.90
60309;DHT22;50313;52.894;6.492;2023-10-09T11:00:56;17.40;99.90
60309;DHT22;50313;52.894;6.492;2023-10-09T11:03:22;17.40;99.90
60309;DHT22;50313;52.894;6.492;2023-10-09T11:06:06;17.50;99.90
60309;DHT22;50313;52.894;6.492;2023-10-09T11:08:46;17.50;99.90
60309;DHT22;50313;52.894;6.492;2023-10-09T11:11:23;17.50;99.90
60309;DHT22;50313;52.894;6.492;2023-10-09T11:13:48;17.50;99.90
60309;DHT22;50313;52.894;6.492;2023-10-09T11:16:25;17.50;99.90
60309;DHT22;50313;52.894;6.492;2023-10-09T11:19:14;17.60;99.90
60309;DHT22;50313;52.894;6.492;2023-10-09T11:21:53;17.60;99.90
60309;DHT22;50313;52.894;6.492;2023-10-09T11:24:41;17.60;99.90
60309;DHT22;50313;52.894;6.492;2023-10-09T11:27:09;17.60;99.90
60309;DHT22;50313;52.894;6.492;2023-10-09T11:29:51;17.70;99.90
60309;DHT22;50313;52.894;6.492;2023-10-09T11:32:19;17.70;99.90
60309;DHT22;50313;52.894;6.492;2023-10-09T11:35:14;17.70;99.90
60309;DHT22;50313;52.894;6.492;2023-10-09T11:38:09;17.90;99.90
60309;DHT22;50313;52.894;6.492;2023-10-09T11:40:47;17.90;99.90
60309;DHT22;50313;52.894;6.492;2023-10-09T11:43:15;18.00;99.90
60309;DHT22;50313;52.894;6.492;2023-10-09T11:45:41;18.10;99.90
60309;DHT22;50313;52.894;6.492;2023-10-09T11:48:20;18.10;99.90
60309;DHT22;50313;52.894;6.492;2023-10-09T11:51:15;18.10;99.90
60309;DHT22;50313;52.894;6.492;2023-10-09T11:53:47;18.00;99.90
60309;DHT22;50313;52.894;6.492;2023-10-09T11:56:16;18.00;99.90
60309;DHT22;50313;52.894;6.492;2023-10-09T11:58:48;18.00;99.90
60309;DHT22;50313;52.894;6.492;2023-10-09T12:01:17;17.80;99.90
60309;DHT22;50313;52.894;6.492;2023-10-09T12:03:46;17.80;99.90
60309;DHT22;50313;52.894;6.492;2023-10-09T12:06:22;17.70;99.90
60309;DHT22;50313;52.894;6.492;2023-10-09T12:08:48;17.70;99.90
60309;DHT22;50313;52.894;6.492;2023-10-09T12:11:17;17.70;99.90
60309;DHT22;50313;52.894;6.492;2023-10-09T12:13:54;17.70;99.90
60309;DHT22;50313;52.894;6.492;2023-10-09T12:16:24;17.80;99.90
60309;DHT22;50313;52.894;6.492;2023-10-09T12:18:57;17.90;99.90
60309;DHT22;50313;52.894;6.492;2023-10-09T12:21:23;18.00;99.90
60309;DHT22;50313;52.894;6.492;2023-10-09T12:23:49;18.10;99.90
60309;DHT22;50313;52.894;6.492;2023-10-09T12:26:15;18.20;99.90
60309;DHT22;50313;52.894;6.492;2023-10-09T12:28:41;18.60;99.90
60309;DHT22;50313;52.894;6.492;2023-10-09T12:31:12;19.00;99.90
60309;DHT22;50313;52.894;6.492;2023-10-09T12:33:41;19.30;99.90
60309;DHT22;50313;52.894;6.492;2023-10-09T12:36:11;19.60;99.90
60309;DHT22;50313;52.894;6.492;2023-10-09T12:38:43;19.80;99.90
60309;DHT22;50313;52.894;6.492;2023-10-09T12:41:11;19.60;99.90
60309;DHT22;50313;52.894;6.492;2023-10-09T12:43:51;19.50;99.90
60309;DHT22;50313;52.894;6.492;2023-10-09T12:46:20;19.40;99.90
60309;DHT22;50313;52.894;6.492;2023-10-09T12:48:54;19.30;99.90
60309;DHT22;50313;52.894;6.492;2023-10-09T12:51:21;19.20;99.90
60309;DHT22;50313;52.894;6.492;2023-10-09T12:53:51;19.10;99.90
60309;DHT22;50313;52.894;6.492;2023-10-09T12:56:26;19.00;99.90
60309;DHT22;50313;52.894;6.492;2023-10-09T12:59:04;19.00;99.90
60309;DHT22;50313;52.894;6.492;2023-10-09T13:01:33;19.00;99.90
60309;DHT22;50313;52.894;6.492;2023-10-09T13:04:11;18.80;99.90
60309;DHT22;50313;52.894;6.492;2023-10-09T13:06:39;18.80;99.90
60309;DHT22;50313;52.894;6.492;2023-10-09T13:09:16;18.60;99.90
60309;DHT22;50313;52.894;6.492;2023-10-09T13:11:50;18.50;99.90
60309;DHT22;50313;52.894;6.492;2023-10-09T13:14:16;18.50;99.90
60309;DHT22;50313;52.894;6.492;2023-10-09T13:16:43;18.40;99.90
60309;DHT22;50313;52.894;6.492;2023-10-09T13:19:09;18.30;99.90
60309;DHT22;50313;52.894;6.492;2023-10-09T13:21:35;18.30;99.90
60309;DHT22;50313;52.894;6.492;2023-10-09T13:24:05;18.30;99.90
60309;DHT22;50313;52.894;6.492;2023-10-09T13:26:30;18.40;99.90
60309;DHT22;50313;52.894;6.492;2023-10-09T13:28:59;18.50;99.90
60309;DHT22;50313;52.894;6.492;2023-10-09T13:31:26;18.60;99.90
60309;DHT22;50313;52.894;6.492;2023-10-09T13:33:55;18.70;99.90
60309;DHT22;50313;52.894;6.492;2023-10-09T13:36:22;18.70;99.90
60309;DHT22;50313;52.894;6.492;2023-10-09T13:38:58;18.80;99.90
60309;DHT22;50313;52.894;6.492;2023-10-09T13:41:44;18.80;99.90
60309;DHT22;50313;52.894;6.492;2023-10-09T13:44:10;18.80;99.90
60309;DHT22;50313;52.894;6.492;2023-10-09T13:46:35;18.70;99.90
60309;DHT22;50313;52.894;6.492;2023-10-09T13:49:10;18.80;99.90
60309;DHT22;50313;52.894;6.492;2023-10-09T13:51:40;18.80;99.90
60309;DHT22;50313;52.894;6.492;2023-10-09T13:54:12;18.70;99.90
60309;DHT22;50313;52.894;6.492;2023-10-09T13:56:56;18.70;99.90
60309;DHT22;50313;52.894;6.492;2023-10-09T13:59:22;18.60;99.90
60309;DHT22;50313;52.894;6.492;2023-10-09T14:01:51;18.60;99.90
60309;DHT22;50313;52.894;6.492;2023-10-09T14:04:20;18.40;99.90
60309;DHT22;50313;52.894;6.492;2023-10-09T14:06:46;18.30;99.90
60309;DHT22;50313;52.894;6.492;2023-10-09T14:09:23;18.40;99.90
60309;DHT22;50313;52.894;6.492;2023-10-09T14:12:18;18.30;99.90
60309;DHT22;50313;52.894;6.492;2023-10-09T14:14:45;18.30;99.90
60309;DHT22;50313;52.894;6.492;2023-10-09T14:17:21;18.30;99.90
60309;DHT22;50313;52.894;6.492;2023-10-09T14:19:55;18.20;99.90
60309;DHT22;50313;52.894;6.492;2023-10-09T14:22:26;18.20;99.90
60309;DHT22;50313;52.894;6.492;2023-10-09T14:24:53;18.20;99.90
60309;DHT22;50313;52.894;6.492;2023-10-09T14:27:23;18.10;99.90
60309;DHT22;50313;52.894;6.492;2023-10-09T14:29:55;18.10;99.90
60309;DHT22;50313;52.894;6.492;2023-10-09T14:32:23;18.10;99.90
60309;DHT22;50313;52.894;6.492;2023-10-09T14:34:55;18.10;99.90
60309;DHT22;50313;52.894;6.492;2023-10-09T14:37:27;18.00;99.90
60309;DHT22;50313;52.894;6.492;2023-10-09T14:39:53;18.10;99.90
60309;DHT22;50313;52.894;6.492;2023-10-09T14:42:19;18.10;99.90
60309;DHT22;50313;52.894;6.492;2023-10-09T14:44:48;18.10;99.90
60309;DHT22;50313;52.894;6.492;2023-10-09T14:47:16;18.00;99.90
60309;DHT22;50313;52.894;6.492;2023-10-09T14:49:47;17.90;99.90
60309;DHT22;50313;52.894;6.492;2023-10-09T14:52:14;17.80;99.90
60309;DHT22;50313;52.894;6.492;2023-10-09T14:54:44;17.70;99.90
60309;DHT22;50313;52.894;6.492;2023-10-09T14:57:11;17.70;99.90
60309;DHT22;50313;52.894;6.492;2023-10-09T14:59:38;17.60;99.90
60309;DHT22;50313;52.894;6.492;2023-10-09T15:02:04;17.60;99.90
60309;DHT22;50313;52.894;6.492;2023-10-09T15:04:33;17.60;99.90
60309;DHT22;50313;52.894;6.492;2023-10-09T15:07:03;17.50;99.90
60309;DHT22;50313;52.894;6.492;2023-10-09T15:09:33;17.50;99.90
60309;DHT22;50313;52.894;6.492;2023-10-09T15:12:00;17.50;99.90
60309;DHT22;50313;52.894;6.492;2023-10-09T15:14:26;17.40;99.90
60309;DHT22;50313;52.894;6.492;2023-10-09T15:16:52;17.40;99.90
60309;DHT22;50313;52.894;6.492;2023-10-09T15:19:17;17.30;99.90
60309;DHT22;50313;52.894;6.492;2023-10-09T15:21:43;17.30;99.90
60309;DHT22;50313;52.894;6.492;2023-10-09T15:24:13;17.30;99.90
60309;DHT22;50313;52.894;6.492;2023-10-09T15:26:45;17.30;99.90
60309;DHT22;50313;52.894;6.492;2023-10-09T15:29:20;17.30;99.90
60309;DHT22;50313;52.894;6.492;2023-10-09T15:31:49;17.30;99.90
60309;DHT22;50313;52.894;6.492;2023-10-09T15:34:18;17.20;99.90
60309;DHT22;50313;52.894;6.492;2023-10-09T15:36:46;17.30;99.90
60309;DHT22;50313;52.894;6.492;2023-10-09T15:39:15;17.20;99.90
60309;DHT22;50313;52.894;6.492;2023-10-09T15:41:45;17.30;99.90
60309;DHT22;50313;52.894;6.492;2023-10-09T15:44:11;17.20;99.90
60309;DHT22;50313;52.894;6.492;2023-10-09T15:46:39;17.20;99.90
60309;DHT22;50313;52.894;6.492;2023-10-09T15:49:05;17.20;99.90
60309;DHT22;50313;52.894;6.492;2023-10-09T15:51:35;17.20;99.90
60309;DHT22;50313;52.894;6.492;2023-10-09T15:54:01;17.20;99.90
60309;DHT22;50313;52.894;6.492;2023-10-09T15:56:27;17.10;99.90
60309;DHT22;50313;52.894;6.492;2023-10-09T15:58:53;17.10;99.90
60309;DHT22;50313;52.894;6.492;2023-10-09T16:01:19;17.10;99.90
60309;DHT22;50313;52.894;6.492;2023-10-09T16:03:47;17.10;99.90
60309;DHT22;50313;52.894;6.492;2023-10-09T16:06:14;17.20;99.90
60309;DHT22;50313;52.894;6.492;2023-10-09T16:08:50;17.10;99.90
60309;DHT22;50313;52.894;6.492;2023-10-09T16:11:20;17.10;99.90
60309;DHT22;50313;52.894;6.492;2023-10-09T16:13:52;17.00;99.90
60309;DHT22;50313;52.894;6.492;2023-10-09T16:16:29;17.00;99.90
60309;DHT22;50313;52.894;6.492;2023-10-09T16:18:59;17.00;99.90
60309;DHT22;50313;52.894;6.492;2023-10-09T16:21:25;16.90;99.90
60309;DHT22;50313;52.894;6.492;2023-10-09T16:23:51;16.90;99.90
60309;DHT22;50313;52.894;6.492;2023-10-09T16:26:17;16.90;99.90